Time;durP1;ratioP1;P1;durP2;ratioP2;P2;SDS_P1;SDS_P2;PMS_P1;PMS_P2;Temp;Humidity;BMP_temperature;BMP_pressure;BME280_temperature;BME280_humidity;BME280_pressure;Samples;Min_cycle;Max_cycle;Signal;HPM_P1;HPM_P2
2023/05/14 00:02:09;;;;;;;9.53;8.40;;;;;;;;;;5096966;28;20497;-75
2023/05/14 00:04:36;;;;;;;11.30;10.10;;;;;;;;;;5089848;28;21003;-74
2023/05/14 00:07:03;;;;;;;13.53;9.67;;;;;;;;;;5083427;28;20882;-75
2023/05/14 00:09:30;;;;;;;11.10;10.00;;;;;;;;;;5081747;28;20549;-75
2023/05/14 00:11:56;;;;;;;12.30;10.10;;;;;;;;;;5080526;28;20509;-74
2023/05/14 00:14:23;;;;;;;11.37;10.13;;;;;;;;;;5079519;28;20521;-74
2023/05/14 00:16:49;;;;;;;10.30;8.80;;;;;;;;;;5080873;28;20476;-75
2023/05/14 00:19:16;;;;;;;14.10;9.50;;;;;;;;;;5070725;28;20455;-75
2023/05/14 00:21:42;;;;;;;9.97;9.07;;;;;;;;;;5076406;28;20464;-75
2023/05/14 00:24:10;;;;;;;10.60;9.50;;;;;;;;;;5084566;28;20471;-74
2023/05/14 00:26:37;;;;;;;8.90;8.10;;;;;;;;;;5081143;28;20479;-74
2023/05/14 00:29:03;;;;;;;10.07;9.07;;;;;;;;;;5078453;28;20544;-74
2023/05/14 00:31:29;;;;;;;10.13;8.80;;;;;;;;;;5081058;28;20494;-74
2023/05/14 00:33:56;;;;;;;9.30;8.50;;;;;;;;;;5084304;28;20498;-74
2023/05/14 00:36:22;;;;;;;10.97;9.87;;;;;;;;;;5082878;28;20483;-75
2023/05/14 00:38:49;;;;;;;10.30;9.30;;;;;;;;;;5076505;28;20456;-75
2023/05/14 00:41:17;;;;;;;10.57;9.47;;;;;;;;;;5076992;28;20891;-74
2023/05/14 00:43:43;;;;;;;9.63;8.80;;;;;;;;;;5086889;28;20481;-75
2023/05/14 00:46:11;;;;;;;12.10;9.30;;;;;;;;;;5088818;28;20487;-75
2023/05/14 00:48:37;;;;;;;9.37;8.57;;;;;;;;;;5085429;28;20475;-75
2023/05/14 00:51:04;;;;;;;11.13;9.80;;;;;;;;;;5078742;28;20476;-75
2023/05/14 00:53:31;;;;;;;13.67;8.37;;;;;;;;;;5088860;28;20478;-74
2023/05/14 00:55:58;;;;;;;10.00;9.20;;;;;;;;;;5087388;28;20832;-74
2023/05/14 00:58:26;;;;;;;10.10;9.10;;;;;;;;;;5088261;28;21048;-74
2023/05/14 01:00:52;;;;;;;10.57;9.60;;;;;;;;;;5083398;28;20468;-74
2023/05/14 01:03:19;;;;;;;8.90;8.00;;;;;;;;;;5085486;28;20517;-74
2023/05/14 01:05:50;;;;;;;9.93;8.93;;;;;;;;;;5096073;28;20493;-74
2023/05/14 01:08:20;;;;;;;10.20;9.17;;;;;;;;;;5086686;28;20541;-74
2023/05/14 01:10:51;;;;;;;10.73;9.73;;;;;;;;;;5082155;28;20474;-75
2023/05/14 01:13:19;;;;;;;10.30;9.30;;;;;;;;;;5087994;28;20455;-75
2023/05/14 01:15:47;;;;;;;10.47;9.23;;;;;;;;;;5085751;28;20991;-75
2023/05/14 01:18:16;;;;;;;11.07;9.87;;;;;;;;;;5084945;28;20451;-75
2023/05/14 01:20:45;;;;;;;13.27;9.50;;;;;;;;;;5084572;28;20525;-74
2023/05/14 01:23:13;;;;;;;11.87;10.70;;;;;;;;;;5085580;28;20518;-74
2023/05/14 01:25:39;;;;;;;10.80;8.60;;;;;;;;;;5095534;28;20477;-74
2023/05/14 01:28:08;;;;;;;10.80;9.40;;;;;;;;;;5092045;28;20520;-74
2023/05/14 01:30:36;;;;;;;10.30;9.40;;;;;;;;;;5090462;28;20885;-74
2023/05/14 01:33:06;;;;;;;11.80;9.73;;;;;;;;;;5081525;28;20444;-74
2023/05/14 01:35:32;;;;;;;10.73;9.63;;;;;;;;;;5087114;28;20502;-75
2023/05/14 01:38:00;;;;;;;11.63;9.57;;;;;;;;;;5084844;28;20439;-74
2023/05/14 01:40:29;;;;;;;9.93;8.97;;;;;;;;;;5083420;28;20567;-74
2023/05/14 01:42:56;;;;;;;10.80;9.80;;;;;;;;;;5072677;28;20479;-75
2023/05/14 01:45:23;;;;;;;10.47;9.40;;;;;;;;;;5092018;28;20550;-75
2023/05/14 01:47:49;;;;;;;11.40;9.70;;;;;;;;;;5087382;28;20440;-75
2023/05/14 01:50:16;;;;;;;10.20;9.13;;;;;;;;;;5088785;28;20959;-75
2023/05/14 01:52:42;;;;;;;10.40;9.40;;;;;;;;;;5089466;28;20455;-75
2023/05/14 01:55:09;;;;;;;10.90;9.73;;;;;;;;;;5089675;28;20459;-75
2023/05/14 01:57:36;;;;;;;10.83;9.73;;;;;;;;;;5086398;28;20504;-74
2023/05/14 02:00:03;;;;;;;13.00;10.10;;;;;;;;;;5088127;28;20886;-74
2023/05/14 02:02:30;;;;;;;10.67;9.60;;;;;;;;;;5081360;28;20548;-74
2023/05/14 02:04:56;;;;;;;10.53;9.43;;;;;;;;;;5083694;28;20452;-75
2023/05/14 02:07:23;;;;;;;11.20;9.93;;;;;;;;;;5087358;28;20497;-75
2023/05/14 02:09:49;;;;;;;11.30;10.10;;;;;;;;;;5081394;28;20491;-74
2023/05/14 02:12:16;;;;;;;11.50;10.10;;;;;;;;;;5082947;28;20965;-75
2023/05/14 02:14:44;;;;;;;10.30;9.17;;;;;;;;;;5084528;28;20468;-75
2023/05/14 02:17:10;;;;;;;10.77;9.67;;;;;;;;;;5083115;28;20475;-74
2023/05/14 02:19:36;;;;;;;11.30;10.20;;;;;;;;;;5083614;28;20822;-75
2023/05/14 02:22:03;;;;;;;12.67;9.93;;;;;;;;;;5083263;28;20992;-75
2023/05/14 02:24:29;;;;;;;10.90;9.80;;;;;;;;;;5082701;28;20516;-75
2023/05/14 02:26:58;;;;;;;14.43;10.27;;;;;;;;;;5088147;28;20528;-75
2023/05/14 02:29:25;;;;;;;12.33;9.80;;;;;;;;;;5084681;28;20488;-75
2023/05/14 02:31:53;;;;;;;15.07;13.50;;;;;;;;;;5082808;28;20467;-75
2023/05/14 02:34:20;;;;;;;14.77;12.67;;;;;;;;;;5083458;28;20452;-75
2023/05/14 02:36:46;;;;;;;16.00;14.00;;;;;;;;;;5082851;28;20816;-74
2023/05/14 02:39:12;;;;;;;15.33;13.83;;;;;;;;;;5083336;28;20448;-74
2023/05/14 02:41:39;;;;;;;15.10;13.50;;;;;;;;;;5082761;28;20533;-74
2023/05/14 02:44:05;;;;;;;14.87;13.40;;;;;;;;;;5086563;28;20507;-75
2023/05/14 02:46:32;;;;;;;15.43;13.90;;;;;;;;;;5082870;28;20468;-74
2023/05/14 02:49:00;;;;;;;15.93;14.23;;;;;;;;;;5083092;28;20488;-75
2023/05/14 02:51:27;;;;;;;14.43;13.03;;;;;;;;;;5081933;28;20478;-75
2023/05/14 02:53:53;;;;;;;15.30;13.90;;;;;;;;;;5083200;28;20502;-74
2023/05/14 02:56:20;;;;;;;19.10;13.77;;;;;;;;;;5083022;28;20475;-74
2023/05/14 02:58:46;;;;;;;16.93;15.10;;;;;;;;;;5083142;28;20494;-74
2023/05/14 03:01:13;;;;;;;13.97;12.33;;;;;;;;;;5086309;28;20503;-74
2023/05/14 03:03:39;;;;;;;15.10;13.10;;;;;;;;;;5082886;28;20467;-75
2023/05/14 03:06:07;;;;;;;12.93;11.67;;;;;;;;;;5086844;28;20476;-75
2023/05/14 03:08:34;;;;;;;15.20;13.63;;;;;;;;;;5084196;28;22620;-74
2023/05/14 03:11:00;;;;;;;13.80;12.40;;;;;;;;;;5078929;28;20565;-74
2023/05/14 03:13:27;;;;;;;14.93;13.57;;;;;;;;;;5089755;28;20470;-74
2023/05/14 03:15:54;;;;;;;14.37;12.90;;;;;;;;;;5084693;28;20456;-74
2023/05/14 03:18:21;;;;;;;17.00;13.47;;;;;;;;;;5086316;28;20466;-73
2023/05/14 03:20:47;;;;;;;13.90;12.50;;;;;;;;;;5082187;28;20996;-74
2023/05/14 03:23:15;;;;;;;13.70;12.20;;;;;;;;;;5083652;28;20523;-74
2023/05/14 03:25:42;;;;;;;16.40;13.83;;;;;;;;;;5085165;28;20482;-75
2023/05/14 03:28:08;;;;;;;13.93;12.53;;;;;;;;;;5084684;28;20474;-74
2023/05/14 03:30:35;;;;;;;15.10;12.30;;;;;;;;;;5081748;28;20896;-74
2023/05/14 03:33:01;;;;;;;14.03;12.57;;;;;;;;;;5083264;28;20436;-74
2023/05/14 03:35:28;;;;;;;14.03;12.63;;;;;;;;;;5082992;28;20480;-74
2023/05/14 03:37:57;;;;;;;13.50;12.20;;;;;;;;;;5082380;28;20448;-74
2023/05/14 03:40:24;;;;;;;14.83;13.20;;;;;;;;;;5082154;28;20528;-74
2023/05/14 03:42:51;;;;;;;13.47;12.10;;;;;;;;;;5075012;28;20463;-74
2023/05/14 03:45:17;;;;;;;14.53;13.13;;;;;;;;;;5083737;28;20505;-74
2023/05/14 03:47:44;;;;;;;14.53;13.03;;;;;;;;;;5087509;28;20452;-74
2023/05/14 03:50:10;;;;;;;13.60;12.20;;;;;;;;;;5081564;28;20483;-74
2023/05/14 03:52:37;;;;;;;14.23;12.83;;;;;;;;;;5086868;28;20483;-74
2023/05/14 03:55:04;;;;;;;14.50;13.20;;;;;;;;;;5082074;28;20456;-74
2023/05/14 03:57:31;;;;;;;13.00;11.70;;;;;;;;;;5079503;28;20480;-75
2023/05/14 03:59:58;;;;;;;16.03;12.73;;;;;;;;;;5082335;28;20530;-75
2023/05/14 04:02:24;;;;;;;13.60;12.30;;;;;;;;;;5087095;28;20464;-74
2023/05/14 04:04:51;;;;;;;13.53;12.23;;;;;;;;;;5086828;28;20513;-74
2023/05/14 04:07:17;;;;;;;12.67;11.40;;;;;;;;;;5081119;28;20492;-75
2023/05/14 04:09:44;;;;;;;13.60;12.20;;;;;;;;;;5081929;28;20522;-75
2023/05/14 04:12:10;;;;;;;14.17;12.87;;;;;;;;;;5085983;28;20500;-74
2023/05/14 04:14:38;;;;;;;12.53;11.37;;;;;;;;;;5096554;28;20478;-75
2023/05/14 04:17:05;;;;;;;12.43;11.23;;;;;;;;;;5081708;28;20490;-75
2023/05/14 04:19:31;;;;;;;12.30;11.10;;;;;;;;;;5083467;28;20452;-75
2023/05/14 04:21:57;;;;;;;11.10;10.10;;;;;;;;;;5093733;28;20476;-74
2023/05/14 04:24:24;;;;;;;12.20;11.10;;;;;;;;;;5085846;28;20478;-74
2023/05/14 04:26:51;;;;;;;12.30;11.20;;;;;;;;;;5088614;28;20472;-74
2023/05/14 04:29:17;;;;;;;10.60;9.60;;;;;;;;;;5078255;28;20494;-74
2023/05/14 04:31:45;;;;;;;11.13;9.83;;;;;;;;;;5081192;28;20506;-75
2023/05/14 04:34:12;;;;;;;10.20;9.30;;;;;;;;;;5084287;28;20451;-74
2023/05/14 04:36:38;;;;;;;11.30;10.20;;;;;;;;;;5092519;28;20572;-75
2023/05/14 04:39:05;;;;;;;10.90;9.80;;;;;;;;;;5089858;28;20513;-74
2023/05/14 04:41:31;;;;;;;11.60;10.40;;;;;;;;;;5080770;28;20510;-74
2023/05/14 04:43:58;;;;;;;9.90;9.00;;;;;;;;;;5095260;28;20476;-75
2023/05/14 04:46:25;;;;;;;9.77;8.97;;;;;;;;;;5085453;28;20479;-75
2023/05/14 04:48:53;;;;;;;9.77;8.97;;;;;;;;;;5065260;28;20461;-75
2023/05/14 04:51:19;;;;;;;10.10;9.10;;;;;;;;;;5077929;28;20468;-75
2023/05/14 04:53:46;;;;;;;10.93;9.70;;;;;;;;;;5095556;28;20496;-75
2023/05/14 04:56:12;;;;;;;9.60;8.77;;;;;;;;;;5083986;28;20488;-76
2023/05/14 04:58:39;;;;;;;10.20;9.20;;;;;;;;;;5084907;28;20459;-74
2023/05/14 05:01:06;;;;;;;11.87;9.10;;;;;;;;;;5084551;28;20476;-74
2023/05/14 05:03:32;;;;;;;10.13;9.33;;;;;;;;;;5081761;28;20474;-75
2023/05/14 05:06:00;;;;;;;10.60;9.70;;;;;;;;;;5085301;28;21302;-75
2023/05/14 05:08:27;;;;;;;11.40;8.80;;;;;;;;;;5088811;28;20462;-75
2023/05/14 05:10:53;;;;;;;10.83;9.83;;;;;;;;;;5081392;28;20479;-74
2023/05/14 05:13:19;;;;;;;11.83;10.30;;;;;;;;;;5086835;28;20976;-74
2023/05/14 05:15:46;;;;;;;10.07;9.00;;;;;;;;;;5084447;28;20459;-75
2023/05/14 05:18:13;;;;;;;10.00;9.10;;;;;;;;;;5096166;28;20450;-74
2023/05/14 05:20:39;;;;;;;12.67;10.80;;;;;;;;;;5092259;28;20459;-75
2023/05/14 05:23:07;;;;;;;10.20;9.20;;;;;;;;;;5085060;28;20456;-75
2023/05/14 05:25:34;;;;;;;9.50;8.70;;;;;;;;;;5088062;28;20521;-75
2023/05/14 05:28:00;;;;;;;9.80;8.80;;;;;;;;;;5084333;28;20456;-74
2023/05/14 05:30:27;;;;;;;9.90;8.90;;;;;;;;;;5084456;28;20967;-74
2023/05/14 05:32:55;;;;;;;10.13;8.80;;;;;;;;;;5098452;28;20459;-74
2023/05/14 05:35:22;;;;;;;10.10;9.10;;;;;;;;;;5094497;28;20538;-74
2023/05/14 05:37:48;;;;;;;10.47;9.57;;;;;;;;;;5091547;28;21405;-73
2023/05/14 05:40:16;;;;;;;10.13;9.30;;;;;;;;;;5085320;28;20509;-73
2023/05/14 05:42:43;;;;;;;10.70;9.80;;;;;;;;;;5084596;28;20997;-73
2023/05/14 05:45:09;;;;;;;10.57;9.47;;;;;;;;;;5099473;28;20923;-73
2023/05/14 05:47:36;;;;;;;12.83;9.37;;;;;;;;;;5089815;28;20447;-73
2023/05/14 05:50:02;;;;;;;8.73;8.03;;;;;;;;;;5101408;28;20496;-73
2023/05/14 05:52:29;;;;;;;11.37;9.30;;;;;;;;;;5095899;28;20506;-72
2023/05/14 05:54:56;;;;;;;8.60;7.80;;;;;;;;;;5094942;28;20484;-72
2023/05/14 05:57:25;;;;;;;9.20;8.50;;;;;;;;;;5094833;28;20468;-72
2023/05/14 05:59:52;;;;;;;9.50;8.67;;;;;;;;;;5100543;28;20479;-73
2023/05/14 06:02:19;;;;;;;9.13;8.33;;;;;;;;;;5092120;28;20536;-73
2023/05/14 06:04:45;;;;;;;8.53;7.67;;;;;;;;;;5090834;28;20452;-73
2023/05/14 06:07:12;;;;;;;7.90;7.20;;;;;;;;;;5096090;28;20479;-73
2023/05/14 06:09:38;;;;;;;7.90;7.17;;;;;;;;;;5084000;28;20479;-73
2023/05/14 06:12:06;;;;;;;8.50;7.77;;;;;;;;;;5083034;28;20464;-74
2023/05/14 06:14:34;;;;;;;8.00;6.90;;;;;;;;;;5082653;28;20464;-74
2023/05/14 06:17:01;;;;;;;8.40;7.53;;;;;;;;;;5083175;28;20551;-73
2023/05/14 06:19:27;;;;;;;8.30;7.50;;;;;;;;;;5083590;28;20460;-74
2023/05/14 06:21:54;;;;;;;8.93;7.30;;;;;;;;;;5082701;28;20494;-74
2023/05/14 06:24:21;;;;;;;7.37;6.67;;;;;;;;;;5083317;28;20538;-74
2023/05/14 06:26:48;;;;;;;7.23;6.63;;;;;;;;;;5082967;28;20472;-74
2023/05/14 06:29:14;;;;;;;7.57;6.97;;;;;;;;;;5085075;28;20473;-74
2023/05/14 06:31:42;;;;;;;6.80;6.30;;;;;;;;;;5082916;28;20487;-74
2023/05/14 06:34:09;;;;;;;7.00;6.40;;;;;;;;;;5085995;28;20469;-74
2023/05/14 06:36:35;;;;;;;7.17;6.57;;;;;;;;;;5082666;28;20487;-74
2023/05/14 06:39:02;;;;;;;7.03;6.43;;;;;;;;;;5083543;28;20448;-81
2023/05/14 06:41:29;;;;;;;7.53;6.93;;;;;;;;;;5081949;28;20505;-81
2023/05/14 06:43:55;;;;;;;8.00;7.20;;;;;;;;;;5082428;28;20524;-80
2023/05/14 06:46:22;;;;;;;7.10;6.50;;;;;;;;;;5092685;28;20471;-81
2023/05/14 06:48:49;;;;;;;10.70;7.30;;;;;;;;;;5081632;28;20447;-80
2023/05/14 06:51:16;;;;;;;7.77;7.17;;;;;;;;;;5091812;28;20491;-80
2023/05/14 06:53:42;;;;;;;8.10;7.40;;;;;;;;;;5084934;28;20460;-78
2023/05/14 06:56:09;;;;;;;6.70;6.20;;;;;;;;;;5082712;28;20537;-80
2023/05/14 06:58:36;;;;;;;8.13;7.20;;;;;;;;;;5082556;28;20452;-80
2023/05/14 07:01:02;;;;;;;7.90;7.20;;;;;;;;;;5091010;28;20552;-79
2023/05/14 07:03:29;;;;;;;8.57;7.00;;;;;;;;;;5083689;28;20467;-79
2023/05/14 07:05:57;;;;;;;8.10;7.30;;;;;;;;;;5081744;28;20475;-73
2023/05/14 07:08:23;;;;;;;8.20;7.33;;;;;;;;;;5087299;28;20504;-73
2023/05/14 07:10:50;;;;;;;8.20;7.10;;;;;;;;;;5074779;28;20585;-74
2023/05/14 07:13:16;;;;;;;9.27;7.80;;;;;;;;;;5072453;28;20595;-74
2023/05/14 07:15:43;;;;;;;6.43;5.83;;;;;;;;;;5076102;28;20479;-74
2023/05/14 07:18:09;;;;;;;7.20;5.67;;;;;;;;;;5082147;28;20480;-74
2023/05/14 07:20:36;;;;;;;6.70;6.10;;;;;;;;;;5084440;28;20471;-74
2023/05/14 07:23:03;;;;;;;5.70;5.20;;;;;;;;;;5078536;28;20456;-74
2023/05/14 07:25:31;;;;;;;7.73;7.03;;;;;;;;;;5078635;28;20472;-75
2023/05/14 07:27:57;;;;;;;5.97;5.47;;;;;;;;;;5084148;28;20464;-75
2023/05/14 07:30:24;;;;;;;5.43;4.93;;;;;;;;;;5081469;28;20476;-74
2023/05/14 07:32:51;;;;;;;5.37;4.87;;;;;;;;;;5079778;28;20460;-73
2023/05/14 07:35:17;;;;;;;5.70;5.20;;;;;;;;;;5080247;28;20521;-77
2023/05/14 07:37:44;;;;;;;5.60;5.10;;;;;;;;;;5079998;28;20517;-77
2023/05/14 07:40:12;;;;;;;4.70;4.30;;;;;;;;;;5080638;28;20487;-76
2023/05/14 07:42:38;;;;;;;5.03;4.40;;;;;;;;;;5077447;28;20528;-75
2023/05/14 07:45:05;;;;;;;4.53;4.13;;;;;;;;;;5086095;28;20455;-77
2023/05/14 07:47:32;;;;;;;5.03;4.53;;;;;;;;;;5085394;28;20529;-77
2023/05/14 07:49:59;;;;;;;5.20;4.70;;;;;;;;;;5088103;28;20782;-77
2023/05/14 07:52:26;;;;;;;4.80;4.40;;;;;;;;;;5081267;28;20483;-77
2023/05/14 07:54:52;;;;;;;5.10;4.70;;;;;;;;;;5080787;28;20444;-79
2023/05/14 07:57:20;;;;;;;5.57;5.07;;;;;;;;;;5080640;28;21019;-79
2023/05/14 07:59:47;;;;;;;4.70;4.30;;;;;;;;;;5077240;28;21351;-80
2023/05/14 08:02:14;;;;;;;5.60;5.03;;;;;;;;;;5080939;28;20484;-79
2023/05/14 08:04:41;;;;;;;5.50;3.83;;;;;;;;;;5077615;28;20831;-81
2023/05/14 08:07:08;;;;;;;6.43;4.20;;;;;;;;;;5082498;28;20484;-81
2023/05/14 08:09:34;;;;;;;4.73;4.00;;;;;;;;;;5084504;28;20529;-81
2023/05/14 08:12:01;;;;;;;5.07;4.17;;;;;;;;;;5074050;28;20503;-76
2023/05/14 08:14:29;;;;;;;4.50;4.10;;;;;;;;;;5091044;28;20489;-77
2023/05/14 08:16:55;;;;;;;4.33;3.93;;;;;;;;;;5074471;28;20510;-77
2023/05/14 08:19:23;;;;;;;4.13;3.83;;;;;;;;;;5069982;28;20456;-76
2023/05/14 08:21:50;;;;;;;5.20;4.70;;;;;;;;;;5074818;28;21069;-76
2023/05/14 08:24:16;;;;;;;5.10;3.80;;;;;;;;;;5082058;28;20460;-75
2023/05/14 08:26:43;;;;;;;3.63;3.33;;;;;;;;;;5079065;28;20581;-74
2023/05/14 08:29:09;;;;;;;5.63;2.90;;;;;;;;;;5080613;28;20474;-74
2023/05/14 08:31:38;;;;;;;5.37;3.50;;;;;;;;;;5077466;28;20498;-74
2023/05/14 08:34:04;;;;;;;3.50;3.20;;;;;;;;;;5081002;28;20448;-75
2023/05/14 08:36:31;;;;;;;4.70;3.43;;;;;;;;;;5082232;28;20479;-74
2023/05/14 08:38:58;;;;;;;4.30;3.90;;;;;;;;;;5076834;28;21078;-74
2023/05/14 08:41:25;;;;;;;3.73;3.43;;;;;;;;;;5083326;28;20862;-74
2023/05/14 08:43:56;;;;;;;4.20;3.60;;;;;;;;;;5087958;28;20456;-75
2023/05/14 08:46:23;;;;;;;4.17;3.30;;;;;;;;;;5080480;28;20471;-75
2023/05/14 08:48:54;;;;;;;2.80;2.60;;;;;;;;;;5080731;28;20478;-77
2023/05/14 08:51:21;;;;;;;3.70;3.40;;;;;;;;;;5080476;28;20479;-76
2023/05/14 08:53:47;;;;;;;3.60;3.30;;;;;;;;;;5094407;28;20841;-75
2023/05/14 08:56:16;;;;;;;3.37;3.07;;;;;;;;;;5087849;28;20549;-74
2023/05/14 08:58:42;;;;;;;3.80;3.40;;;;;;;;;;5078445;28;20467;-75
2023/05/14 09:01:09;;;;;;;5.50;3.53;;;;;;;;;;5087284;28;20471;-75
2023/05/14 09:03:36;;;;;;;3.70;3.40;;;;;;;;;;5087473;28;20451;-74
2023/05/14 09:06:04;;;;;;;3.20;3.00;;;;;;;;;;5086092;28;20478;-75
2023/05/14 09:08:31;;;;;;;3.70;3.40;;;;;;;;;;5084775;28;20493;-75
2023/05/14 09:10:57;;;;;;;3.43;3.13;;;;;;;;;;5086268;28;20483;-75
2023/05/14 09:13:23;;;;;;;3.37;3.13;;;;;;;;;;5085311;28;21034;-76
2023/05/14 09:15:50;;;;;;;4.43;3.40;;;;;;;;;;5083773;28;20487;-77
2023/05/14 09:18:17;;;;;;;3.30;3.00;;;;;;;;;;5093841;28;20528;-76
2023/05/14 09:20:43;;;;;;;4.70;3.37;;;;;;;;;;5087804;28;20483;-74
2023/05/14 09:23:11;;;;;;;3.40;3.10;;;;;;;;;;5084358;28;20451;-74
2023/05/14 09:25:38;;;;;;;3.77;3.10;;;;;;;;;;5088774;28;20483;-74
2023/05/14 09:28:06;;;;;;;4.90;4.10;;;;;;;;;;5083667;28;20451;-75
2023/05/14 09:30:33;;;;;;;4.10;3.70;;;;;;;;;;5080473;28;20490;-75
2023/05/14 09:33:00;;;;;;;3.90;3.40;;;;;;;;;;5083478;28;20498;-75
2023/05/14 09:35:26;;;;;;;4.90;3.87;;;;;;;;;;5080750;28;20470;-76
2023/05/14 09:37:53;;;;;;;4.37;3.20;;;;;;;;;;5084119;28;20524;-76
2023/05/14 09:40:22;;;;;;;3.67;3.37;;;;;;;;;;5081969;28;20455;-74
2023/05/14 09:42:49;;;;;;;4.50;3.10;;;;;;;;;;5078839;28;20474;-74
2023/05/14 09:45:16;;;;;;;3.10;2.90;;;;;;;;;;5087099;28;20455;-74
2023/05/14 09:47:43;;;;;;;2.87;2.60;;;;;;;;;;5084096;28;20456;-74
2023/05/14 09:50:10;;;;;;;4.00;2.73;;;;;;;;;;5082683;28;20464;-75
2023/05/14 09:52:38;;;;;;;2.77;2.57;;;;;;;;;;5086554;28;20492;-76
2023/05/14 09:55:05;;;;;;;3.10;2.73;;;;;;;;;;5087967;28;20443;-75
2023/05/14 09:57:34;;;;;;;2.97;2.77;;;;;;;;;;5087964;28;20552;-76
2023/05/14 10:00:01;;;;;;;2.50;2.30;;;;;;;;;;5087092;28;20452;-75
2023/05/14 10:02:35;;;;;;;2.30;2.10;;;;;;;;;;5081609;28;20476;-75
2023/05/14 10:05:03;;;;;;;3.00;2.10;;;;;;;;;;5086790;28;20463;-76
2023/05/14 10:07:33;;;;;;;2.60;2.40;;;;;;;;;;5083102;28;20486;-77
2023/05/14 10:10:01;;;;;;;3.20;2.33;;;;;;;;;;5085968;28;20479;-77
2023/05/14 10:12:29;;;;;;;2.23;2.07;;;;;;;;;;5089539;28;20480;-77
2023/05/14 10:14:59;;;;;;;3.80;2.50;;;;;;;;;;5089879;28;20531;-76
2023/05/14 10:17:27;;;;;;;2.33;2.13;;;;;;;;;;5082551;28;21008;-76
2023/05/14 10:19:57;;;;;;;2.40;2.20;;;;;;;;;;5089833;28;20479;-76
2023/05/14 10:22:23;;;;;;;1.90;1.80;;;;;;;;;;5085828;28;20475;-77
2023/05/14 10:24:51;;;;;;;1.97;1.73;;;;;;;;;;5086991;28;20451;-77
2023/05/14 10:27:18;;;;;;;1.80;1.70;;;;;;;;;;5091637;28;20547;-77
2023/05/14 10:29:48;;;;;;;2.63;1.60;;;;;;;;;;5089170;28;20459;-77
2023/05/14 10:32:16;;;;;;;2.37;1.70;;;;;;;;;;5088426;28;20479;-76
2023/05/14 10:34:43;;;;;;;1.87;1.63;;;;;;;;;;5087970;28;20448;-77
2023/05/14 10:37:11;;;;;;;1.93;1.73;;;;;;;;;;5082427;28;20533;-77
2023/05/14 10:39:44;;;;;;;2.43;2.23;;;;;;;;;;5079046;28;20474;-77
2023/05/14 10:42:11;;;;;;;2.63;2.43;;;;;;;;;;5076854;28;20487;-77
2023/05/14 10:44:41;;;;;;;2.20;2.00;;;;;;;;;;5085305;28;20492;-77
2023/05/14 10:47:07;;;;;;;2.63;2.07;;;;;;;;;;5077529;28;20477;-77
2023/05/14 10:49:35;;;;;;;2.10;1.90;;;;;;;;;;5083536;28;20519;-76
2023/05/14 10:52:02;;;;;;;2.83;2.30;;;;;;;;;;5083393;28;20475;-77
2023/05/14 10:54:28;;;;;;;3.13;1.73;;;;;;;;;;5086715;28;20448;-77
2023/05/14 10:56:58;;;;;;;2.53;1.93;;;;;;;;;;5080355;28;20525;-76
2023/05/14 10:59:26;;;;;;;3.53;2.17;;;;;;;;;;5082106;28;20478;-76
2023/05/14 11:01:53;;;;;;;2.20;1.97;;;;;;;;;;5082876;28;20481;-76
2023/05/14 11:04:19;;;;;;;2.73;1.93;;;;;;;;;;5084890;28;20448;-76
2023/05/14 11:06:48;;;;;;;2.20;2.00;;;;;;;;;;5084673;28;20486;-76
2023/05/14 11:09:16;;;;;;;2.30;2.10;;;;;;;;;;5087217;28;20483;-76
2023/05/14 11:11:43;;;;;;;2.80;2.03;;;;;;;;;;5080774;28;20641;-76
2023/05/14 11:14:09;;;;;;;2.40;2.20;;;;;;;;;;5081353;28;20494;-76
2023/05/14 11:16:36;;;;;;;2.90;2.30;;;;;;;;;;5081383;28;20488;-75
2023/05/14 11:19:03;;;;;;;1.70;1.60;;;;;;;;;;5090275;28;20547;-75
2023/05/14 11:21:31;;;;;;;2.40;2.20;;;;;;;;;;5084100;28;20548;-75
2023/05/14 11:23:59;;;;;;;2.40;2.13;;;;;;;;;;5081970;28;20444;-74
2023/05/14 11:26:26;;;;;;;2.30;2.10;;;;;;;;;;5082151;28;20577;-75
2023/05/14 11:28:52;;;;;;;2.73;2.33;;;;;;;;;;5083047;28;20533;-76
2023/05/14 11:31:19;;;;;;;3.43;1.90;;;;;;;;;;5079478;28;20475;-76
2023/05/14 11:33:45;;;;;;;8.73;2.50;;;;;;;;;;5081111;28;20452;-76
2023/05/14 11:36:12;;;;;;;3.63;2.40;;;;;;;;;;5087669;28;20517;-76
2023/05/14 11:38:47;;;;;;;3.33;2.27;;;;;;;;;;5081847;28;20444;-76
2023/05/14 11:41:14;;;;;;;3.93;3.57;;;;;;;;;;5076250;28;20507;-76
2023/05/14 11:43:41;;;;;;;4.47;2.30;;;;;;;;;;5081154;28;20474;-76
2023/05/14 11:46:07;;;;;;;2.43;2.00;;;;;;;;;;5078103;28;20880;-76
2023/05/14 11:48:34;;;;;;;2.77;1.90;;;;;;;;;;5082007;28;20440;-76
2023/05/14 11:51:01;;;;;;;2.73;2.20;;;;;;;;;;5082978;28;20545;-75
2023/05/14 11:53:28;;;;;;;2.63;1.80;;;;;;;;;;5078818;28;20492;-76
2023/05/14 11:55:56;;;;;;;1.90;1.80;;;;;;;;;;5081357;28;20493;-75
2023/05/14 11:58:24;;;;;;;1.93;1.77;;;;;;;;;;5080941;28;20574;-76
2023/05/14 12:00:51;;;;;;;1.80;1.70;;;;;;;;;;5078870;28;20537;-77
2023/05/14 12:03:22;;;;;;;2.60;2.40;;;;;;;;;;5079812;28;20467;-77
2023/05/14 12:05:54;;;;;;;3.10;2.40;;;;;;;;;;5077946;28;20479;-78
2023/05/14 12:08:21;;;;;;;3.43;2.20;;;;;;;;;;5079839;28;20459;-78
2023/05/14 12:10:48;;;;;;;2.33;2.13;;;;;;;;;;5060402;28;20476;-76
2023/05/14 12:13:15;;;;;;;3.27;2.53;;;;;;;;;;5060188;28;20526;-76
2023/05/14 12:15:45;;;;;;;2.70;2.20;;;;;;;;;;5063511;28;20534;-76
2023/05/14 12:18:12;;;;;;;3.43;2.70;;;;;;;;;;5066455;28;20453;-76
2023/05/14 12:20:38;;;;;;;2.90;2.50;;;;;;;;;;5064644;28;20496;-76
2023/05/14 12:23:06;;;;;;;4.00;2.83;;;;;;;;;;5064974;28;20452;-76
2023/05/14 12:25:33;;;;;;;2.70;2.50;;;;;;;;;;5071216;28;20472;-75
2023/05/14 12:27:59;;;;;;;2.50;2.30;;;;;;;;;;5067734;28;21078;-76
2023/05/14 12:30:26;;;;;;;3.53;3.03;;;;;;;;;;5063681;28;20473;-76
2023/05/14 12:32:54;;;;;;;3.27;2.60;;;;;;;;;;5077189;28;20488;-76
2023/05/14 12:35:21;;;;;;;2.60;2.40;;;;;;;;;;5068127;28;20464;-76
2023/05/14 12:37:48;;;;;;;3.20;2.90;;;;;;;;;;5069869;28;20453;-77
2023/05/14 12:40:15;;;;;;;2.90;2.70;;;;;;;;;;5071174;28;20850;-77
2023/05/14 12:42:41;;;;;;;3.00;2.70;;;;;;;;;;5068037;28;20511;-77
2023/05/14 12:45:08;;;;;;;3.17;2.97;;;;;;;;;;5073915;28;20502;-78
2023/05/14 12:47:34;;;;;;;2.60;2.40;;;;;;;;;;5070417;28;20502;-76
2023/05/14 12:50:02;;;;;;;3.00;2.70;;;;;;;;;;5066238;28;20933;-77
2023/05/14 12:52:29;;;;;;;3.43;3.13;;;;;;;;;;5066190;28;20957;-77
2023/05/14 12:54:55;;;;;;;3.10;2.90;;;;;;;;;;5072225;28;20534;-77
2023/05/14 12:57:22;;;;;;;3.10;2.80;;;;;;;;;;5066605;28;20484;-76
2023/05/14 12:59:48;;;;;;;3.10;2.40;;;;;;;;;;5060463;28;22856;-76
2023/05/14 13:02:16;;;;;;;3.53;3.03;;;;;;;;;;5070498;28;20473;-77
2023/05/14 13:04:42;;;;;;;2.70;2.50;;;;;;;;;;5067063;28;20460;-77
2023/05/14 13:07:10;;;;;;;3.77;2.70;;;;;;;;;;5067664;28;20484;-77
2023/05/14 13:09:37;;;;;;;2.90;2.70;;;;;;;;;;5077506;28;20491;-78
2023/05/14 13:12:03;;;;;;;3.10;2.80;;;;;;;;;;5090205;28;20514;-76
2023/05/14 13:14:30;;;;;;;3.40;3.10;;;;;;;;;;5084502;28;20458;-77
2023/05/14 13:16:57;;;;;;;3.47;2.53;;;;;;;;;;5075954;28;20483;-77
2023/05/14 13:19:23;;;;;;;2.77;2.57;;;;;;;;;;5094590;28;20450;-76
2023/05/14 13:21:50;;;;;;;3.10;2.77;;;;;;;;;;5094730;28;20582;-77
2023/05/14 13:24:18;;;;;;;3.23;2.93;;;;;;;;;;5092874;28;20455;-77
2023/05/14 13:26:44;;;;;;;3.03;2.80;;;;;;;;;;5087436;28;20478;-76
2023/05/14 13:29:11;;;;;;;2.57;2.37;;;;;;;;;;5089361;28;20475;-77
2023/05/14 13:31:37;;;;;;;3.13;2.60;;;;;;;;;;5092343;28;20483;-76
2023/05/14 13:34:04;;;;;;;2.70;2.50;;;;;;;;;;5084860;28;20521;-77
2023/05/14 13:36:31;;;;;;;3.50;3.00;;;;;;;;;;5085084;28;20503;-77
2023/05/14 13:38:57;;;;;;;2.43;2.23;;;;;;;;;;5084422;28;20452;-77
2023/05/14 13:41:25;;;;;;;2.60;2.40;;;;;;;;;;5086271;28;21012;-77
2023/05/14 13:43:52;;;;;;;2.83;2.33;;;;;;;;;;5084593;28;20463;-77
2023/05/14 13:46:18;;;;;;;2.60;2.40;;;;;;;;;;5085932;28;20479;-77
2023/05/14 13:48:45;;;;;;;2.90;2.57;;;;;;;;;;5085933;28;20519;-77
2023/05/14 13:51:11;;;;;;;4.10;2.80;;;;;;;;;;5089534;28;20474;-77
2023/05/14 13:53:37;;;;;;;3.20;2.90;;;;;;;;;;5088683;28;20491;-77
2023/05/14 13:56:05;;;;;;;2.70;2.50;;;;;;;;;;5087936;28;20495;-77
2023/05/14 13:58:33;;;;;;;3.13;2.30;;;;;;;;;;5091407;28;20494;-77
2023/05/14 14:00:59;;;;;;;2.80;2.60;;;;;;;;;;5087145;28;20525;-77
2023/05/14 14:03:26;;;;;;;2.40;2.20;;;;;;;;;;5091874;28;20518;-77
2023/05/14 14:05:52;;;;;;;2.30;2.10;;;;;;;;;;5084356;28;20571;-77
2023/05/14 14:08:19;;;;;;;3.80;2.53;;;;;;;;;;5088019;28;20467;-77
2023/05/14 14:10:45;;;;;;;2.60;2.10;;;;;;;;;;5065587;28;20472;-76
2023/05/14 14:13:12;;;;;;;2.80;2.60;;;;;;;;;;5061988;28;20500;-76
2023/05/14 14:15:39;;;;;;;3.00;2.80;;;;;;;;;;5062997;28;20481;-77
2023/05/14 14:18:06;;;;;;;3.93;2.20;;;;;;;;;;5063538;28;20472;-77
2023/05/14 14:20:32;;;;;;;3.10;2.50;;;;;;;;;;5058838;28;20530;-76
2023/05/14 14:22:59;;;;;;;2.67;2.47;;;;;;;;;;5063684;28;20519;-77
2023/05/14 14:25:26;;;;;;;3.43;2.73;;;;;;;;;;5061003;28;20486;-76
2023/05/14 14:27:52;;;;;;;2.83;2.63;;;;;;;;;;5063169;28;20491;-76
2023/05/14 14:30:19;;;;;;;3.40;3.10;;;;;;;;;;5061074;28;20575;-75
2023/05/14 14:32:48;;;;;;;2.93;2.73;;;;;;;;;;5061476;28;20492;-75
2023/05/14 14:35:16;;;;;;;2.83;2.50;;;;;;;;;;5067679;28;20452;-77